sensor_id;sensor_type;location;lat;lon;timestamp;pressure;altitude;pressure_sealevel;temperature;humidity
67931;BME280;54726;52.000;5.954;2022-08-07T00:00:35;102294.88;;;13.09;66.87
67931;BME280;54726;52.000;5.954;2022-08-07T00:01:36;102310.00;;;13.08;66.72
67931;BME280;54726;52.000;5.954;2022-08-07T00:02:36;102282.91;;;12.92;66.70
67931;BME280;54726;52.000;5.954;2022-08-07T00:03:37;102294.25;;;12.99;66.70
67931;BME280;54726;52.000;5.954;2022-08-07T00:04:37;102309.16;;;13.06;66.85
67931;BME280;54726;52.000;5.954;2022-08-07T00:05:38;102308.31;;;13.04;66.87
67931;BME280;54726;52.000;5.954;2022-08-07T00:06:39;102301.34;;;13.00;66.84
67931;BME280;54726;52.000;5.954;2022-08-07T00:07:39;102309.25;;;13.03;67.07
67931;BME280;54726;52.000;5.954;2022-08-07T00:08:40;102301.28;;;13.02;66.97
67931;BME280;54726;52.000;5.954;2022-08-07T00:09:40;102302.19;;;13.01;66.97
67931;BME280;54726;52.000;5.954;2022-08-07T00:10:41;102306.56;;;13.03;67.21
67931;BME280;54726;52.000;5.954;2022-08-07T00:11:41;102301.28;;;13.02;66.93
67931;BME280;54726;52.000;5.954;2022-08-07T00:12:42;102305.63;;;13.06;67.13
67931;BME280;54726;52.000;5.954;2022-08-07T00:13:42;102302.13;;;13.04;67.02
67931;BME280;54726;52.000;5.954;2022-08-07T00:14:44;102293.38;;;12.98;67.06
67931;BME280;54726;52.000;5.954;2022-08-07T00:15:44;102296.00;;;13.00;67.06
67931;BME280;54726;52.000;5.954;2022-08-07T00:16:45;102301.34;;;13.00;66.98
67931;BME280;54726;52.000;5.954;2022-08-07T00:17:45;102303.13;;;12.99;67.24
67931;BME280;54726;52.000;5.954;2022-08-07T00:18:46;102295.28;;;12.93;67.42
67931;BME280;54726;52.000;5.954;2022-08-07T00:19:47;102302.22;;;12.99;67.38
67931;BME280;54726;52.000;5.954;2022-08-07T00:20:47;102302.28;;;12.97;67.35
67931;BME280;54726;52.000;5.954;2022-08-07T00:21:48;102294.34;;;12.96;67.39
67931;BME280;54726;52.000;5.954;2022-08-07T00:22:48;102293.47;;;12.95;67.47
67931;BME280;54726;52.000;5.954;2022-08-07T00:23:49;102294.38;;;12.94;67.67
67931;BME280;54726;52.000;5.954;2022-08-07T00:24:49;102300.59;;;12.95;67.55
67931;BME280;54726;52.000;5.954;2022-08-07T00:25:50;102291.75;;;12.93;67.74
67931;BME280;54726;52.000;5.954;2022-08-07T00:26:50;102301.56;;;12.91;67.59
67931;BME280;54726;52.000;5.954;2022-08-07T00:27:51;102292.78;;;12.89;67.63
67931;BME280;54726;52.000;5.954;2022-08-07T00:28:51;102292.84;;;12.86;67.97
67931;BME280;54726;52.000;5.954;2022-08-07T00:29:53;102276.16;;;12.79;67.62
67931;BME280;54726;52.000;5.954;2022-08-07T00:30:53;102286.59;;;12.87;67.81
67931;BME280;54726;52.000;5.954;2022-08-07T00:31:54;102281.38;;;12.82;67.90
67931;BME280;54726;52.000;5.954;2022-08-07T00:32:55;102276.16;;;12.79;67.95
67931;BME280;54726;52.000;5.954;2022-08-07T00:33:55;102291.09;;;12.85;67.94
67931;BME280;54726;52.000;5.954;2022-08-07T00:34:56;102280.59;;;12.79;68.03
67931;BME280;54726;52.000;5.954;2022-08-07T00:35:56;102277.00;;;12.80;67.67
67931;BME280;54726;52.000;5.954;2022-08-07T00:36:56;102284.94;;;12.83;67.95
67931;BME280;54726;52.000;5.954;2022-08-07T00:37:57;102283.19;;;12.82;68.04
67931;BME280;54726;52.000;5.954;2022-08-07T00:38:57;102277.06;;;12.78;67.81
67931;BME280;54726;52.000;5.954;2022-08-07T00:39:58;102274.41;;;12.78;68.04
67931;BME280;54726;52.000;5.954;2022-08-07T00:40:59;102271.75;;;12.78;67.93
67931;BME280;54726;52.000;5.954;2022-08-07T00:41:59;102283.19;;;12.82;68.08
67931;BME280;54726;52.000;5.954;2022-08-07T00:43:00;102275.25;;;12.80;67.75
67931;BME280;54726;52.000;5.954;2022-08-07T00:44:00;102277.91;;;12.80;68.08
67931;BME280;54726;52.000;5.954;2022-08-07T00:45:03;102277.84;;;12.82;68.02
67931;BME280;54726;52.000;5.954;2022-08-07T00:46:04;102275.19;;;12.82;68.01
67931;BME280;54726;52.000;5.954;2022-08-07T00:47:05;102235.03;;;12.58;67.98
67931;BME280;54726;52.000;5.954;2022-08-07T00:48:07;102270.81;;;12.81;68.00
67931;BME280;54726;52.000;5.954;2022-08-07T00:49:08;102274.31;;;12.81;68.10
67931;BME280;54726;52.000;5.954;2022-08-07T00:50:09;102273.47;;;12.81;68.11
67931;BME280;54726;52.000;5.954;2022-08-07T00:51:09;102276.13;;;12.81;67.65
67931;BME280;54726;52.000;5.954;2022-08-07T00:52:10;102277.00;;;12.81;68.05
67931;BME280;54726;52.000;5.954;2022-08-07T00:53:10;102266.44;;;12.76;67.91
67931;BME280;54726;52.000;5.954;2022-08-07T00:54:11;102277.84;;;12.83;67.82
67931;BME280;54726;52.000;5.954;2022-08-07T00:55:12;102264.66;;;12.77;68.12
67931;BME280;54726;52.000;5.954;2022-08-07T00:56:12;102269.97;;;12.79;68.09
67931;BME280;54726;52.000;5.954;2022-08-07T00:57:13;102267.47;;;12.72;67.95
67931;BME280;54726;52.000;5.954;2022-08-07T00:58:13;102260.34;;;12.73;68.02
67931;BME280;54726;52.000;5.954;2022-08-07T00:59:14;102270.88;;;12.77;68.34
67931;BME280;54726;52.000;5.954;2022-08-07T01:00:17;102257.72;;;12.71;68.53
67931;BME280;54726;52.000;5.954;2022-08-07T01:01:18;102245.50;;;12.64;68.44
67931;BME280;54726;52.000;5.954;2022-08-07T01:02:19;102262.97;;;12.74;68.39
67931;BME280;54726;52.000;5.954;2022-08-07T01:03:20;102259.59;;;12.68;68.42
67931;BME280;54726;52.000;5.954;2022-08-07T01:04:21;102260.34;;;12.73;68.32
67931;BME280;54726;52.000;5.954;2022-08-07T01:05:22;102256.81;;;12.72;68.44
67931;BME280;54726;52.000;5.954;2022-08-07T01:06:23;102252.56;;;12.65;68.54
67931;BME280;54726;52.000;5.954;2022-08-07T01:07:23;102264.88;;;12.69;68.20
67931;BME280;54726;52.000;5.954;2022-08-07T01:08:24;102262.22;;;12.69;68.54
67931;BME280;54726;52.000;5.954;2022-08-07T01:09:25;102262.22;;;12.69;68.63
67931;BME280;54726;52.000;5.954;2022-08-07T01:10:26;102265.78;;;12.68;68.49
67931;BME280;54726;52.000;5.954;2022-08-07T01:11:27;102250.81;;;12.64;68.60
67931;BME280;54726;52.000;5.954;2022-08-07T01:12:28;102258.72;;;12.67;68.74
67931;BME280;54726;52.000;5.954;2022-08-07T01:13:29;102256.09;;;12.66;68.87
67931;BME280;54726;52.000;5.954;2022-08-07T01:14:30;102257.06;;;12.63;68.77
67931;BME280;54726;52.000;5.954;2022-08-07T01:15:33;102259.75;;;12.63;68.69
67931;BME280;54726;52.000;5.954;2022-08-07T01:16:34;102252.81;;;12.56;68.83
67931;BME280;54726;52.000;5.954;2022-08-07T01:17:35;102253.69;;;12.57;69.10
67931;BME280;54726;52.000;5.954;2022-08-07T01:18:36;102264.25;;;12.60;69.03
67931;BME280;54726;52.000;5.954;2022-08-07T01:19:37;102266.97;;;12.58;68.89
67931;BME280;54726;52.000;5.954;2022-08-07T01:20:50;102261.63;;;12.58;69.11
67931;BME280;54726;52.000;5.954;2022-08-07T01:21:54;102262.59;;;12.56;69.16
67931;BME280;54726;52.000;5.954;2022-08-07T01:22:54;102254.78;;;12.49;69.11
67931;BME280;54726;52.000;5.954;2022-08-07T01:23:56;102259.94;;;12.54;68.98
67931;BME280;54726;52.000;5.954;2022-08-07T01:24:57;102260.97;;;12.50;69.35
67931;BME280;54726;52.000;5.954;2022-08-07T01:25:58;102262.75;;;12.49;69.70
67931;BME280;54726;52.000;5.954;2022-08-07T01:26:59;102252.91;;;12.51;69.46
67931;BME280;54726;52.000;5.954;2022-08-07T01:28:00;102249.56;;;12.45;69.30
67931;BME280;54726;52.000;5.954;2022-08-07T01:29:01;102257.47;;;12.48;69.35
67931;BME280;54726;52.000;5.954;2022-08-07T01:30:02;102258.31;;;12.50;69.52
67931;BME280;54726;52.000;5.954;2022-08-07T01:31:03;102269.81;;;12.50;69.54
67931;BME280;54726;52.000;5.954;2022-08-07T01:32:04;102263.63;;;12.50;69.42
67931;BME280;54726;52.000;5.954;2022-08-07T01:33:05;102246.06;;;12.43;69.50
67931;BME280;54726;52.000;5.954;2022-08-07T01:34:05;102260.13;;;12.48;69.53
67931;BME280;54726;52.000;5.954;2022-08-07T01:35:06;102250.47;;;12.44;69.70
67931;BME280;54726;52.000;5.954;2022-08-07T01:36:08;102253.16;;;12.44;69.39
67931;BME280;54726;52.000;5.954;2022-08-07T01:37:10;102254.84;;;12.46;69.73
67931;BME280;54726;52.000;5.954;2022-08-07T01:38:11;102253.09;;;12.45;69.67
67931;BME280;54726;52.000;5.954;2022-08-07T01:39:11;102251.44;;;12.41;69.41
67931;BME280;54726;52.000;5.954;2022-08-07T01:40:13;102256.69;;;12.43;69.75
67931;BME280;54726;52.000;5.954;2022-08-07T01:41:17;102254.97;;;12.42;69.71
67931;BME280;54726;52.000;5.954;2022-08-07T01:42:18;102242.63;;;12.38;69.40
67931;BME280;54726;52.000;5.954;2022-08-07T01:43:19;102252.31;;;12.40;69.57
67931;BME280;54726;52.000;5.954;2022-08-07T01:44:19;102250.56;;;12.41;69.75
67931;BME280;54726;52.000;5.954;2022-08-07T01:45:20;102250.59;;;12.39;69.75
67931;BME280;54726;52.000;5.954;2022-08-07T01:46:21;102249.66;;;12.40;69.71
67931;BME280;54726;52.000;5.954;2022-08-07T01:47:21;102255.03;;;12.39;69.78
67931;BME280;54726;52.000;5.954;2022-08-07T01:48:22;102254.19;;;12.38;69.72
67931;BME280;54726;52.000;5.954;2022-08-07T01:49:23;102242.72;;;12.35;69.97
67931;BME280;54726;52.000;5.954;2022-08-07T01:50:24;102240.13;;;12.31;69.68
67931;BME280;54726;52.000;5.954;2022-08-07T01:51:26;102233.16;;;12.27;69.83
67931;BME280;54726;52.000;5.954;2022-08-07T01:52:30;102251.59;;;12.35;69.67
67931;BME280;54726;52.000;5.954;2022-08-07T01:53:33;102241.91;;;12.32;69.90
67931;BME280;54726;52.000;5.954;2022-08-07T01:54:36;102245.44;;;12.33;70.12
67931;BME280;54726;52.000;5.954;2022-08-07T01:55:43;102243.66;;;12.34;69.96
67931;BME280;54726;52.000;5.954;2022-08-07T01:56:47;102240.13;;;12.31;69.92
67931;BME280;54726;52.000;5.954;2022-08-07T01:57:49;102246.38;;;12.30;70.18
67931;BME280;54726;52.000;5.954;2022-08-07T01:58:55;102237.63;;;12.25;70.07
67931;BME280;54726;52.000;5.954;2022-08-07T02:00:03;102244.66;;;12.29;70.03
67931;BME280;54726;52.000;5.954;2022-08-07T02:01:08;102240.22;;;12.28;70.08
67931;BME280;54726;52.000;5.954;2022-08-07T02:02:14;102244.66;;;12.28;70.12
67931;BME280;54726;52.000;5.954;2022-08-07T02:03:17;102242.03;;;12.26;70.10
67931;BME280;54726;52.000;5.954;2022-08-07T02:04:24;102236.78;;;12.23;70.03
67931;BME280;54726;52.000;5.954;2022-08-07T02:05:28;102235.06;;;12.22;70.05
67931;BME280;54726;52.000;5.954;2022-08-07T02:06:32;102242.97;;;12.25;70.14
67931;BME280;54726;52.000;5.954;2022-08-07T02:07:38;102239.44;;;12.23;70.31
67931;BME280;54726;52.000;5.954;2022-08-07T02:08:41;102235.09;;;12.21;70.13
67931;BME280;54726;52.000;5.954;2022-08-07T02:09:44;102240.41;;;12.21;70.17
67931;BME280;54726;52.000;5.954;2022-08-07T02:10:47;102239.50;;;12.22;70.24
67931;BME280;54726;52.000;5.954;2022-08-07T02:11:49;102240.41;;;12.21;70.41
67931;BME280;54726;52.000;5.954;2022-08-07T02:12:51;102240.41;;;12.21;70.36
67931;BME280;54726;52.000;5.954;2022-08-07T02:13:53;102226.47;;;12.11;70.28
67931;BME280;54726;52.000;5.954;2022-08-07T02:14:56;102242.19;;;12.20;70.58
67931;BME280;54726;52.000;5.954;2022-08-07T02:15:59;102244.84;;;12.20;70.37
67931;BME280;54726;52.000;5.954;2022-08-07T02:17:01;102236.00;;;12.20;70.63
67931;BME280;54726;52.000;5.954;2022-08-07T02:18:02;102233.44;;;12.15;70.78
67931;BME280;54726;52.000;5.954;2022-08-07T02:19:06;102233.50;;;12.14;70.73
67931;BME280;54726;52.000;5.954;2022-08-07T02:20:09;102229.94;;;12.15;70.80
67931;BME280;54726;52.000;5.954;2022-08-07T02:21:11;102217.72;;;12.07;70.50
67931;BME280;54726;52.000;5.954;2022-08-07T02:22:13;102227.25;;;12.16;70.67
67931;BME280;54726;52.000;5.954;2022-08-07T02:23:17;102229.16;;;12.09;70.75
67931;BME280;54726;52.000;5.954;2022-08-07T02:24:18;102215.94;;;12.06;70.99
67931;BME280;54726;52.000;5.954;2022-08-07T02:25:19;102229.16;;;12.09;71.15
67931;BME280;54726;52.000;5.954;2022-08-07T02:26:22;102229.22;;;12.08;70.95
67931;BME280;54726;52.000;5.954;2022-08-07T02:27:24;102224.88;;;12.04;71.14
67931;BME280;54726;52.000;5.954;2022-08-07T02:28:28;102206.50;;;11.95;70.91
67931;BME280;54726;52.000;5.954;2022-08-07T02:29:30;102222.22;;;12.04;71.26
67931;BME280;54726;52.000;5.954;2022-08-07T02:30:33;102226.56;;;12.06;71.19
67931;BME280;54726;52.000;5.954;2022-08-07T02:31:35;102233.69;;;12.06;71.31
67931;BME280;54726;52.000;5.954;2022-08-07T02:32:36;102226.72;;;12.02;71.11
67931;BME280;54726;52.000;5.954;2022-08-07T02:33:37;102217.88;;;12.00;71.22
67931;BME280;54726;52.000;5.954;2022-08-07T02:34:38;102231.97;;;12.05;71.26
67931;BME280;54726;52.000;5.954;2022-08-07T02:35:41;102224.13;;;11.99;71.28
67931;BME280;54726;52.000;5.954;2022-08-07T02:36:43;102227.59;;;12.02;71.26
67931;BME280;54726;52.000;5.954;2022-08-07T02:37:45;102196.97;;;11.86;71.23
67931;BME280;54726;52.000;5.954;2022-08-07T02:38:48;102228.44;;;12.03;71.36
67931;BME280;54726;52.000;5.954;2022-08-07T02:39:51;102218.81;;;11.99;71.20
67931;BME280;54726;52.000;5.954;2022-08-07T02:40:53;102227.59;;;12.01;71.29
67931;BME280;54726;52.000;5.954;2022-08-07T02:41:55;102230.25;;;12.01;71.46
67931;BME280;54726;52.000;5.954;2022-08-07T02:42:56;102223.31;;;11.95;71.01
67931;BME280;54726;52.000;5.954;2022-08-07T02:43:58;102220.66;;;11.95;71.48
67931;BME280;54726;52.000;5.954;2022-08-07T02:45:02;102232.13;;;11.99;71.31
67931;BME280;54726;52.000;5.954;2022-08-07T02:46:05;102233.00;;;11.98;71.33
67931;BME280;54726;52.000;5.954;2022-08-07T02:47:06;102223.38;;;11.94;71.37
67931;BME280;54726;52.000;5.954;2022-08-07T02:48:08;102234.81;;;11.96;71.42
67931;BME280;54726;52.000;5.954;2022-08-07T02:49:08;102228.63;;;11.95;71.73
67931;BME280;54726;52.000;5.954;2022-08-07T02:50:09;102226.09;;;11.91;71.79
67931;BME280;54726;52.000;5.954;2022-08-07T02:51:12;102232.22;;;11.94;71.73
67931;BME280;54726;52.000;5.954;2022-08-07T02:52:16;102226.91;;;11.93;71.65
67931;BME280;54726;52.000;5.954;2022-08-07T02:53:21;102226.91;;;11.93;71.70
67931;BME280;54726;52.000;5.954;2022-08-07T02:54:25;102228.69;;;11.94;71.70
67931;BME280;54726;52.000;5.954;2022-08-07T02:55:29;102218.19;;;11.88;71.49
67931;BME280;54726;52.000;5.954;2022-08-07T02:56:31;102225.19;;;11.92;71.58
67931;BME280;54726;52.000;5.954;2022-08-07T02:57:35;102226.91;;;11.93;71.61
67931;BME280;54726;52.000;5.954;2022-08-07T02:58:36;102225.19;;;11.92;71.73
67931;BME280;54726;52.000;5.954;2022-08-07T02:59:40;102216.47;;;11.85;71.81
67931;BME280;54726;52.000;5.954;2022-08-07T03:00:42;102216.44;;;11.86;72.10
67931;BME280;54726;52.000;5.954;2022-08-07T03:01:44;102219.00;;;11.90;71.89
67931;BME280;54726;52.000;5.954;2022-08-07T03:02:46;102224.34;;;11.90;71.77
67931;BME280;54726;52.000;5.954;2022-08-07T03:03:48;102218.16;;;11.89;71.92
67931;BME280;54726;52.000;5.954;2022-08-07T03:04:52;102223.47;;;11.89;71.84
67931;BME280;54726;52.000;5.954;2022-08-07T03:05:55;102218.16;;;11.89;71.98
67931;BME280;54726;52.000;5.954;2022-08-07T03:06:57;102221.72;;;11.88;71.84
67931;BME280;54726;52.000;5.954;2022-08-07T03:07:59;102224.41;;;11.86;72.12
67931;BME280;54726;52.000;5.954;2022-08-07T03:09:00;102216.44;;;11.86;71.89
67931;BME280;54726;52.000;5.954;2022-08-07T03:10:03;102218.22;;;11.86;72.28
67931;BME280;54726;52.000;5.954;2022-08-07T03:11:04;102212.16;;;11.79;71.88
67931;BME280;54726;52.000;5.954;2022-08-07T03:12:07;102220.06;;;11.82;72.27
67931;BME280;54726;52.000;5.954;2022-08-07T03:13:08;102183.34;;;11.61;72.01
67931;BME280;54726;52.000;5.954;2022-08-07T03:14:10;102220.06;;;11.81;72.14
67931;BME280;54726;52.000;5.954;2022-08-07T03:15:11;102179.03;;;11.57;72.26
67931;BME280;54726;52.000;5.954;2022-08-07T03:16:11;102213.25;;;11.71;72.27
67931;BME280;54726;52.000;5.954;2022-08-07T03:17:12;102207.94;;;11.71;72.59
67931;BME280;54726;52.000;5.954;2022-08-07T03:18:13;102220.25;;;11.73;72.70
67931;BME280;54726;52.000;5.954;2022-08-07T03:19:14;102216.88;;;11.67;72.45
67931;BME280;54726;52.000;5.954;2022-08-07T03:20:15;102223.00;;;11.70;72.51
67931;BME280;54726;52.000;5.954;2022-08-07T03:21:16;102228.31;;;11.70;72.69
67931;BME280;54726;52.000;5.954;2022-08-07T03:22:19;102220.31;;;11.70;72.84
67931;BME280;54726;52.000;5.954;2022-08-07T03:23:20;102226.56;;;11.69;72.76
67931;BME280;54726;52.000;5.954;2022-08-07T03:24:21;102228.34;;;11.69;73.04
67931;BME280;54726;52.000;5.954;2022-08-07T03:25:23;102221.25;;;11.69;72.88
67931;BME280;54726;52.000;5.954;2022-08-07T03:26:26;102220.38;;;11.69;72.92
67931;BME280;54726;52.000;5.954;2022-08-07T03:27:27;102222.19;;;11.67;72.75
67931;BME280;54726;52.000;5.954;2022-08-07T03:28:28;102226.63;;;11.66;72.88
67931;BME280;54726;52.000;5.954;2022-08-07T03:29:34;102228.44;;;11.65;72.86
67931;BME280;54726;52.000;5.954;2022-08-07T03:30:37;102230.22;;;11.65;72.82
67931;BME280;54726;52.000;5.954;2022-08-07T03:31:39;102217.91;;;11.61;73.03
67931;BME280;54726;52.000;5.954;2022-08-07T03:32:42;102224.06;;;11.61;72.98
67931;BME280;54726;52.000;5.954;2022-08-07T03:33:43;102223.22;;;11.61;73.16
67931;BME280;54726;52.000;5.954;2022-08-07T03:34:45;102229.38;;;11.61;73.27
67931;BME280;54726;52.000;5.954;2022-08-07T03:35:47;102228.53;;;11.61;73.09
67931;BME280;54726;52.000;5.954;2022-08-07T03:36:49;102225.03;;;11.59;73.45
67931;BME280;54726;52.000;5.954;2022-08-07T03:37:53;102223.22;;;11.59;73.42
67931;BME280;54726;52.000;5.954;2022-08-07T03:38:58;102226.84;;;11.57;73.28
67931;BME280;54726;52.000;5.954;2022-08-07T03:40:03;102225.16;;;11.53;73.33
67931;BME280;54726;52.000;5.954;2022-08-07T03:41:05;102219.06;;;11.49;73.69
67931;BME280;54726;52.000;5.954;2022-08-07T03:42:07;102219.16;;;11.45;73.76
67931;BME280;54726;52.000;5.954;2022-08-07T03:43:08;102220.94;;;11.44;73.94
67931;BME280;54726;52.000;5.954;2022-08-07T03:44:09;102214.75;;;11.43;73.90
67931;BME280;54726;52.000;5.954;2022-08-07T03:45:10;102217.34;;;11.45;73.89
67931;BME280;54726;52.000;5.954;2022-08-07T03:46:12;102216.56;;;11.41;73.81
67931;BME280;54726;52.000;5.954;2022-08-07T03:47:13;102218.28;;;11.44;74.05
67931;BME280;54726;52.000;5.954;2022-08-07T03:48:14;102216.63;;;11.40;74.07
67931;BME280;54726;52.000;5.954;2022-08-07T03:49:15;102217.34;;;11.45;74.02
67931;BME280;54726;52.000;5.954;2022-08-07T03:50:15;102216.50;;;11.45;74.09
67931;BME280;54726;52.000;5.954;2022-08-07T03:51:17;102224.50;;;11.43;73.97
67931;BME280;54726;52.000;5.954;2022-08-07T03:52:19;102215.63;;;11.42;74.17
67931;BME280;54726;52.000;5.954;2022-08-07T03:53:20;102214.00;;;11.37;74.17
67931;BME280;54726;52.000;5.954;2022-08-07T03:54:21;102214.84;;;11.39;74.14
67931;BME280;54726;52.000;5.954;2022-08-07T03:55:22;102217.50;;;11.39;74.22
67931;BME280;54726;52.000;5.954;2022-08-07T03:56:24;102221.06;;;11.38;74.11
67931;BME280;54726;52.000;5.954;2022-08-07T03:57:26;102221.06;;;11.38;74.28
67931;BME280;54726;52.000;5.954;2022-08-07T03:58:28;102211.47;;;11.32;74.28
67931;BME280;54726;52.000;5.954;2022-08-07T03:59:29;102222.94;;;11.34;74.42
67931;BME280;54726;52.000;5.954;2022-08-07T04:00:31;102220.28;;;11.33;74.34
67931;BME280;54726;52.000;5.954;2022-08-07T04:01:33;102226.53;;;11.30;74.56
67931;BME280;54726;52.000;5.954;2022-08-07T04:02:35;102219.56;;;11.26;74.47
67931;BME280;54726;52.000;5.954;2022-08-07T04:03:36;102221.31;;;11.26;74.74
67931;BME280;54726;52.000;5.954;2022-08-07T04:04:36;102215.22;;;11.22;74.92
67931;BME280;54726;52.000;5.954;2022-08-07T04:05:37;102222.28;;;11.23;74.80
67931;BME280;54726;52.000;5.954;2022-08-07T04:06:37;102220.59;;;11.19;74.74
67931;BME280;54726;52.000;5.954;2022-08-07T04:07:43;102229.34;;;11.24;74.79
67931;BME280;54726;52.000;5.954;2022-08-07T04:08:44;102213.53;;;11.18;75.00
67931;BME280;54726;52.000;5.954;2022-08-07T04:09:45;102222.31;;;11.20;74.63
67931;BME280;54726;52.000;5.954;2022-08-07T04:10:46;102222.38;;;11.18;74.88
67931;BME280;54726;52.000;5.954;2022-08-07T04:11:49;102226.78;;;11.19;74.91
67931;BME280;54726;52.000;5.954;2022-08-07T04:12:50;102183.94;;;10.94;75.11
67931;BME280;54726;52.000;5.954;2022-08-07T04:13:52;102218.91;;;11.15;74.94
67931;BME280;54726;52.000;5.954;2022-08-07T04:14:53;102225.97;;;11.16;75.20
67931;BME280;54726;52.000;5.954;2022-08-07T04:15:55;102222.47;;;11.14;75.19
67931;BME280;54726;52.000;5.954;2022-08-07T04:16:56;102226.97;;;11.10;75.16
67931;BME280;54726;52.000;5.954;2022-08-07T04:17:57;102224.34;;;11.09;75.40
67931;BME280;54726;52.000;5.954;2022-08-07T04:18:58;102220.81;;;11.08;75.40
67931;BME280;54726;52.000;5.954;2022-08-07T04:19:58;102227.88;;;11.09;75.24
67931;BME280;54726;52.000;5.954;2022-08-07T04:20:59;102232.28;;;11.10;75.30
67931;BME280;54726;52.000;5.954;2022-08-07T04:22:00;102218.13;;;11.10;75.51
67931;BME280;54726;52.000;5.954;2022-08-07T04:23:01;102221.59;;;11.13;75.43
67931;BME280;54726;52.000;5.954;2022-08-07T04:24:04;102227.78;;;11.14;75.25
67931;BME280;54726;52.000;5.954;2022-08-07T04:25:06;102217.22;;;11.11;75.51
67931;BME280;54726;52.000;5.954;2022-08-07T04:26:07;102226.03;;;11.13;75.29
67931;BME280;54726;52.000;5.954;2022-08-07T04:27:09;102221.66;;;11.12;74.97
67931;BME280;54726;52.000;5.954;2022-08-07T04:28:10;102226.09;;;11.10;75.24
67931;BME280;54726;52.000;5.954;2022-08-07T04:29:10;102230.50;;;11.11;75.61
67931;BME280;54726;52.000;5.954;2022-08-07T04:30:11;102232.28;;;11.10;75.95
67931;BME280;54726;52.000;5.954;2022-08-07T04:31:12;102231.41;;;11.10;75.51
67931;BME280;54726;52.000;5.954;2022-08-07T04:32:13;102229.72;;;11.06;75.78
67931;BME280;54726;52.000;5.954;2022-08-07T04:33:14;102229.63;;;11.09;75.70
67931;BME280;54726;52.000;5.954;2022-08-07T04:34:15;102240.25;;;11.09;75.72
67931;BME280;54726;52.000;5.954;2022-08-07T04:35:15;102234.97;;;11.09;75.82
67931;BME280;54726;52.000;5.954;2022-08-07T04:36:16;102237.66;;;11.07;75.74
67931;BME280;54726;52.000;5.954;2022-08-07T04:37:16;102228.03;;;11.02;75.78
67931;BME280;54726;52.000;5.954;2022-08-07T04:38:18;102237.59;;;11.09;75.66
67931;BME280;54726;52.000;5.954;2022-08-07T04:39:18;102227.19;;;11.00;75.74
67931;BME280;54726;52.000;5.954;2022-08-07T04:40:19;102236.94;;;10.99;76.10
67931;BME280;54726;52.000;5.954;2022-08-07T04:41:19;102254.53;;;11.05;76.07
67931;BME280;54726;52.000;5.954;2022-08-07T04:42:21;102211.53;;;10.86;75.72
67931;BME280;54726;52.000;5.954;2022-08-07T04:43:25;102248.28;;;11.07;75.80
67931;BME280;54726;52.000;5.954;2022-08-07T04:44:27;102233.41;;;10.98;75.80
67931;BME280;54726;52.000;5.954;2022-08-07T04:45:35;102247.38;;;11.08;75.82
67931;BME280;54726;52.000;5.954;2022-08-07T04:46:40;102247.44;;;11.05;75.76
67931;BME280;54726;52.000;5.954;2022-08-07T04:47:47;102253.53;;;11.10;75.88
67931;BME280;54726;52.000;5.954;2022-08-07T04:48:59;102257.91;;;11.11;75.76
67931;BME280;54726;52.000;5.954;2022-08-07T04:50:07;102253.50;;;11.12;75.88
67931;BME280;54726;52.000;5.954;2022-08-07T04:51:14;102246.53;;;11.06;75.87
67931;BME280;54726;52.000;5.954;2022-08-07T04:52:21;102241.31;;;11.02;76.10
67931;BME280;54726;52.000;5.954;2022-08-07T04:53:30;102258.84;;;11.09;75.69
67931;BME280;54726;52.000;5.954;2022-08-07T04:54:35;102246.56;;;11.03;75.90
67931;BME280;54726;52.000;5.954;2022-08-07T04:55:44;102245.72;;;11.03;75.88
67931;BME280;54726;52.000;5.954;2022-08-07T04:56:58;102252.69;;;11.08;76.10
67931;BME280;54726;52.000;5.954;2022-08-07T04:58:10;102251.81;;;11.08;75.84
67931;BME280;54726;52.000;5.954;2022-08-07T04:59:17;102253.53;;;11.10;75.66
67931;BME280;54726;52.000;5.954;2022-08-07T05:00:26;102250.84;;;11.12;75.84
67931;BME280;54726;52.000;5.954;2022-08-07T05:01:37;102254.38;;;11.12;75.71
67931;BME280;54726;52.000;5.954;2022-08-07T05:02:44;102249.94;;;11.11;75.85
67931;BME280;54726;52.000;5.954;2022-08-07T05:03:51;102256.97;;;11.15;75.93
67931;BME280;54726;52.000;5.954;2022-08-07T05:04:59;102253.47;;;11.13;76.01
67931;BME280;54726;52.000;5.954;2022-08-07T05:06:04;102259.63;;;11.14;75.86
67931;BME280;54726;52.000;5.954;2022-08-07T05:07:11;102249.16;;;11.08;76.03
67931;BME280;54726;52.000;5.954;2022-08-07T05:08:17;102248.22;;;11.10;75.90
67931;BME280;54726;52.000;5.954;2022-08-07T05:09:25;102255.97;;;11.21;75.70
67931;BME280;54726;52.000;5.954;2022-08-07T05:10:30;102257.69;;;11.24;75.88
67931;BME280;54726;52.000;5.954;2022-08-07T05:11:35;102264.72;;;11.26;75.63
67931;BME280;54726;52.000;5.954;2022-08-07T05:12:41;102261.16;;;11.27;75.92
67931;BME280;54726;52.000;5.954;2022-08-07T05:13:50;102249.59;;;11.30;75.50
67931;BME280;54726;52.000;5.954;2022-08-07T05:14:52;102251.31;;;11.31;75.80
67931;BME280;54726;52.000;5.954;2022-08-07T05:15:56;102252.16;;;11.33;75.68
67931;BME280;54726;52.000;5.954;2022-08-07T05:17:01;102259.22;;;11.35;75.69
67931;BME280;54726;52.000;5.954;2022-08-07T05:18:05;102243.25;;;11.35;75.52
67931;BME280;54726;52.000;5.954;2022-08-07T05:19:09;102260.84;;;11.41;75.59
67931;BME280;54726;52.000;5.954;2022-08-07T05:20:13;102253.69;;;11.45;75.39
67931;BME280;54726;52.000;5.954;2022-08-07T05:21:16;102250.19;;;11.42;75.47
67931;BME280;54726;52.000;5.954;2022-08-07T05:22:19;102247.47;;;11.46;75.21
67931;BME280;54726;52.000;5.954;2022-08-07T05:23:24;102250.81;;;11.54;75.07
67931;BME280;54726;52.000;5.954;2022-08-07T05:24:27;102254.31;;;11.56;75.00
67931;BME280;54726;52.000;5.954;2022-08-07T05:25:30;102254.31;;;11.57;75.13